Time;durP1;ratioP1;P1;durP2;ratioP2;P2;SDS_P1;SDS_P2;PMS_P1;PMS_P2;Temp;Humidity;BMP_temperature;BMP_pressure;BME280_temperature;BME280_humidity;BME280_pressure;Samples;Min_cycle;Max_cycle;Signal;HPM_P1;HPM_P2
2023/09/21 00:01:38;;;;;;;7.2;3.9;;;;;;;13.03;89.65;;;;;
2023/09/21 00:11:37;;;;;;;7.2;3.9;;;;;;;12.94;91.11;;;;;
2023/09/21 00:22:37;;;;;;;7.2;3.9;;;;;;;12.84;90.44;;;;;
2023/09/21 00:32:39;;;;;;;10.9;4.8;;;;;;;12.75;90.78;;;;;
2023/09/21 00:43:37;;;;;;;10.9;4.8;;;;;;;12.72;90.37;;;;;
2023/09/21 00:53:39;;;;;;;10.9;4.8;;;;;;;12.64;90.04;;;;;
2023/09/21 01:04:37;;;;;;;6.9;3.3;;;;;;;12.57;89.85;;;;;
2023/09/21 01:14:37;;;;;;;6.9;3.3;;;;;;;12.41;90.09;;;;;
2023/09/21 01:25:39;;;;;;;6.9;3.3;;;;;;;12.38;90;;;;;
2023/09/21 01:35:37;;;;;;;6.8;3.6;;;;;;;12.25;90.39;;;;;
2023/09/21 01:46:37;;;;;;;6.8;3.6;;;;;;;12.17;90.52;;;;;
2023/09/21 01:57:37;;;;;;;6.8;3.6;;;;;;;12.12;90.68;;;;;
2023/09/21 02:08:38;;;;;;;6;3;;;;;;;12.1;90.62;;;;;
2023/09/21 02:19:37;;;;;;;6;3;;;;;;;12.02;90.71;;;;;
2023/09/21 02:30:37;;;;;;;6.3;3.7;;;;;;;12;90.84;;;;;
2023/09/21 02:40:38;;;;;;;6.3;3.7;;;;;;;11.96;90.83;;;;;
2023/09/21 02:51:38;;;;;;;6.3;3.7;;;;;;;11.89;90.63;;;;;
2023/09/21 03:01:37;;;;;;;8.1;3.2;;;;;;;11.83;90.67;;;;;
2023/09/21 03:12:37;;;;;;;8.1;3.2;;;;;;;11.81;91.02;;;;;
2023/09/21 03:22:37;;;;;;;8.1;3.2;;;;;;;11.8;91.32;;;;;
2023/09/21 03:33:37;;;;;;;5.6;2.9;;;;;;;11.79;91.34;;;;;
2023/09/21 03:43:37;;;;;;;5.6;2.9;;;;;;;11.78;91.18;;;;;
2023/09/21 03:54:37;;;;;;;5.6;2.9;;;;;;;11.72;91.12;;;;;
2023/09/21 04:05:37;;;;;;;7.3;3.1;;;;;;;11.71;91.11;;;;;
2023/09/21 04:16:37;;;;;;;7.3;3.1;;;;;;;11.64;91.1;;;;;
2023/09/21 04:26:37;;;;;;;7.3;3.1;;;;;;;11.64;91.23;;;;;
2023/09/21 04:37:38;;;;;;;7.8;3.8;;;;;;;11.63;91.24;;;;;
2023/09/21 04:48:37;;;;;;;7.8;3.8;;;;;;;11.66;91.27;;;;;
2023/09/21 04:58:37;;;;;;;7.8;3.8;;;;;;;11.72;91.42;;;;;
2023/09/21 05:09:37;;;;;;;8;3.2;;;;;;;12.03;92.03;;;;;
2023/09/21 05:20:37;;;;;;;8;3.2;;;;;;;12.45;92.44;;;;;
2023/09/21 05:30:37;;;;;;;4.5;2.5;;;;;;;12.87;92.37;;;;;
2023/09/21 05:40:40;;;;;;;4.5;2.5;;;;;;;13.44;92.2;;;;;
2023/09/21 05:50:37;;;;;;;4.5;2.5;;;;;;;13.95;91.75;;;;;
2023/09/21 06:00:37;;;;;;;7.1;3.2;;;;;;;14.5;91.84;;;;;
2023/09/21 06:11:37;;;;;;;7.1;3.2;;;;;;;15.56;88.68;;;;;
2023/09/21 06:22:37;;;;;;;7.1;3.2;;;;;;;16.48;84.75;;;;;
2023/09/21 06:33:37;;;;;;;4.3;1.9;;;;;;;17.25;86.24;;;;;
2023/09/21 06:44:37;;;;;;;4.3;1.9;;;;;;;17.97;84.67;;;;;
2023/09/21 06:54:38;;;;;;;4.3;1.9;;;;;;;18.54;77.8;;;;;
2023/09/21 07:05:37;;;;;;;5.3;2;;;;;;;19.13;76.05;;;;;
2023/09/21 07:15:37;;;;;;;5.3;2;;;;;;;19.58;75.08;;;;;
2023/09/21 07:26:37;;;;;;;5.3;2;;;;;;;20.08;69.96;;;;;
2023/09/21 07:36:39;;;;;;;3.9;1.6;;;;;;;20.48;70.86;;;;;
2023/09/21 07:46:37;;;;;;;3.9;1.6;;;;;;;20.85;69.04;;;;;
2023/09/21 07:57:37;;;;;;;3.9;1.6;;;;;;;21.21;71.45;;;;;
2023/09/21 08:08:37;;;;;;;5.2;2.3;;;;;;;21.36;70.64;;;;;
2023/09/21 08:19:39;;;;;;;5.2;2.3;;;;;;;21.88;69.97;;;;;
2023/09/21 08:29:37;;;;;;;5.2;2.3;;;;;;;22.21;64.74;;;;;
2023/09/21 08:40:37;;;;;;;6.3;2.6;;;;;;;22.48;64.45;;;;;
2023/09/21 08:50:37;;;;;;;6.3;2.6;;;;;;;22.56;59.77;;;;;
2023/09/21 09:00:37;;;;;;;3;1.1;;;;;;;23.01;59.88;;;;;
2023/09/21 09:10:37;;;;;;;3;1.1;;;;;;;23.07;59.98;;;;;
2023/09/21 09:21:37;;;;;;;3;1.1;;;;;;;23.34;59.47;;;;;
2023/09/21 09:32:41;;;;;;;4;1.5;;;;;;;23.38;60.17;;;;;
2023/09/21 09:43:37;;;;;;;4;1.5;;;;;;;24.01;59.95;;;;;
2023/09/21 09:54:37;;;;;;;4;1.5;;;;;;;24.01;58.43;;;;;
2023/09/21 10:04:39;;;;;;;4.6;1.5;;;;;;;24.56;60.91;;;;;
2023/09/21 10:15:37;;;;;;;4.6;1.5;;;;;;;24.85;58.84;;;;;
2023/09/21 10:26:38;;;;;;;4.6;1.5;;;;;;;24.62;59.92;;;;;
2023/09/21 10:36:38;;;;;;;3.7;2.1;;;;;;;24.87;60.2;;;;;
2023/09/21 10:46:37;;;;;;;3.7;2.1;;;;;;;25.08;59.27;;;;;
2023/09/21 10:57:38;;;;;;;3.7;2.1;;;;;;;25.43;58.25;;;;;
2023/09/21 11:07:37;;;;;;;6;2.7;;;;;;;25.52;58.1;;;;;
2023/09/21 11:18:37;;;;;;;6;2.7;;;;;;;25.39;56.06;;;;;
2023/09/21 11:29:39;;;;;;;6;2.7;;;;;;;25.8;55.77;;;;;
2023/09/21 11:39:37;;;;;;;5.2;2;;;;;;;25.66;54.44;;;;;
2023/09/21 11:49:37;;;;;;;5.2;2;;;;;;;26.27;52.99;;;;;
2023/09/21 12:00:43;;;;;;;4.6;2;;;;;;;26.31;53.49;;;;;
2023/09/21 12:10:37;;;;;;;4.6;2;;;;;;;25.96;53.59;;;;;
2023/09/21 12:20:38;;;;;;;4.6;2;;;;;;;26;53.36;;;;;
2023/09/21 12:30:38;;;;;;;5.1;1.8;;;;;;;26.07;51.31;;;;;
2023/09/21 12:40:37;;;;;;;5.1;1.8;;;;;;;26.4;51.76;;;;;
2023/09/21 12:51:37;;;;;;;5.1;1.8;;;;;;;26.42;51.15;;;;;
2023/09/21 13:02:37;;;;;;;4.4;1.5;;;;;;;26.56;50.8;;;;;
2023/09/21 13:12:37;;;;;;;4.4;1.5;;;;;;;26.91;47.03;;;;;
2023/09/21 13:23:37;;;;;;;4.4;1.5;;;;;;;26.81;47.38;;;;;
2023/09/21 13:33:37;;;;;;;4.8;1.8;;;;;;;26.83;46.63;;;;;
2023/09/21 13:44:37;;;;;;;4.8;1.8;;;;;;;26.99;45.5;;;;;
2023/09/21 13:55:38;;;;;;;4.8;1.8;;;;;;;26.81;46.38;;;;;
2023/09/21 14:05:39;;;;;;;5.2;3.8;;;;;;;26.78;46.7;;;;;
2023/09/21 14:16:37;;;;;;;5.2;3.8;;;;;;;26.86;44.55;;;;;
2023/09/21 14:26:37;;;;;;;5.2;3.8;;;;;;;26.42;45.4;;;;;
2023/09/21 14:36:37;;;;;;;5;2.5;;;;;;;26.35;46.76;;;;;
2023/09/21 14:46:37;;;;;;;5;2.5;;;;;;;26.23;47.44;;;;;
2023/09/21 14:57:37;;;;;;;5;2.5;;;;;;;25.54;49.08;;;;;
2023/09/21 15:08:38;;;;;;;7.4;2.6;;;;;;;25.03;53.37;;;;;
2023/09/21 15:19:38;;;;;;;7.4;2.6;;;;;;;24.25;56.31;;;;;
2023/09/21 15:29:37;;;;;;;7.4;2.6;;;;;;;24.09;54.03;;;;;
2023/09/21 15:39:37;;;;;;;5;2.2;;;;;;;24.69;50.88;;;;;
2023/09/21 15:49:37;;;;;;;5;2.2;;;;;;;23.7;54.74;;;;;
2023/09/21 15:59:37;;;;;;;5;2.2;;;;;;;22.72;55.47;;;;;
2023/09/21 16:09:38;;;;;;;5.9;2.2;;;;;;;22.11;57.28;;;;;
2023/09/21 16:20:37;;;;;;;5.9;2.2;;;;;;;21.64;58.76;;;;;
2023/09/21 16:30:38;;;;;;;5.9;2.2;;;;;;;21.33;61.13;;;;;
2023/09/21 16:41:37;;;;;;;6;2.9;;;;;;;20.97;60.84;;;;;
2023/09/21 16:52:39;;;;;;;6;2.9;;;;;;;20.71;61.98;;;;;
2023/09/21 17:02:39;;;;;;;9.2;3.4;;;;;;;20.54;64.91;;;;;
2023/09/21 17:12:39;;;;;;;9.2;3.4;;;;;;;20.5;63.92;;;;;
2023/09/21 17:22:37;;;;;;;9.2;3.4;;;;;;;20.47;63.93;;;;;
2023/09/21 17:33:37;;;;;;;6.2;3.4;;;;;;;20.53;63.75;;;;;
2023/09/21 17:44:37;;;;;;;6.2;3.4;;;;;;;20.47;64.46;;;;;
2023/09/21 17:55:37;;;;;;;6.2;3.4;;;;;;;20.42;64.06;;;;;
2023/09/21 18:05:37;;;;;;;5.2;2.8;;;;;;;20.47;63.56;;;;;
2023/09/21 18:16:37;;;;;;;5.2;2.8;;;;;;;20.39;63.64;;;;;
2023/09/21 18:26:37;;;;;;;5.2;2.8;;;;;;;20.29;64.73;;;;;
2023/09/21 18:37:37;;;;;;;7.8;3.1;;;;;;;20.02;65.98;;;;;
2023/09/21 18:47:37;;;;;;;7.8;3.1;;;;;;;19.82;66.28;;;;;
2023/09/21 18:58:37;;;;;;;7.8;3.1;;;;;;;19.6;68.26;;;;;
2023/09/21 19:09:37;;;;;;;8.3;3.3;;;;;;;19.55;68.09;;;;;
2023/09/21 19:19:37;;;;;;;8.3;3.3;;;;;;;19.57;68.03;;;;;
2023/09/21 19:30:38;;;;;;;8.3;3.3;;;;;;;19.5;69;;;;;
2023/09/21 19:41:37;;;;;;;6.3;3.5;;;;;;;19.42;69.1;;;;;
2023/09/21 19:52:39;;;;;;;6.3;3.5;;;;;;;19.34;69.41;;;;;
2023/09/21 20:02:38;;;;;;;6.2;3.5;;;;;;;19.11;70.45;;;;;
2023/09/21 20:13:38;;;;;;;6.2;3.5;;;;;;;18.9;71.11;;;;;
2023/09/21 20:24:38;;;;;;;6.2;3.5;;;;;;;18.76;70.71;;;;;
2023/09/21 20:35:37;;;;;;;5.9;3.6;;;;;;;18.7;70.22;;;;;
2023/09/21 20:45:37;;;;;;;5.9;3.6;;;;;;;18.79;69.25;;;;;
2023/09/21 20:55:38;;;;;;;5.9;3.6;;;;;;;18.94;68.87;;;;;
2023/09/21 21:06:38;;;;;;;8.2;3.8;;;;;;;19.11;68.51;;;;;
2023/09/21 21:16:38;;;;;;;8.2;3.8;;;;;;;19.23;68.01;;;;;
2023/09/21 21:26:38;;;;;;;8.2;3.8;;;;;;;19.23;68.13;;;;;
2023/09/21 21:37:38;;;;;;;6.6;3.6;;;;;;;19.14;68.19;;;;;
2023/09/21 21:48:38;;;;;;;6.6;3.6;;;;;;;18.93;69.27;;;;;
2023/09/21 21:58:38;;;;;;;6.6;3.6;;;;;;;18.6;70.38;;;;;
2023/09/21 22:09:40;;;;;;;6.4;3.3;;;;;;;18.4;71.18;;;;;
2023/09/21 22:20:39;;;;;;;6.4;3.3;;;;;;;18.23;71.61;;;;;
2023/09/21 22:30:38;;;;;;;6.4;3.3;;;;;;;18.08;72.18;;;;;
2023/09/21 22:41:38;;;;;;;7;3.2;;;;;;;18.08;72.4;;;;;
2023/09/21 22:51:38;;;;;;;7;3.2;;;;;;;17.88;73.44;;;;;
2023/09/21 23:02:38;;;;;;;7.3;3;;;;;;;17.64;73.74;;;;;
2023/09/21 23:12:38;;;;;;;7.3;3;;;;;;;17.33;73.74;;;;;
2023/09/21 23:22:40;;;;;;;7.3;3;;;;;;;16.98;75.47;;;;;
2023/09/21 23:33:38;;;;;;;6.2;3;;;;;;;16.65;77.73;;;;;
2023/09/21 23:44:38;;;;;;;6.2;3;;;;;;;16.46;78.68;;;;;
2023/09/21 23:55:39;;;;;;;6.2;3;;;;;;;16.38;78.32;;;;;
